createdAt,value
2018-08-27T00:06:26.007Z,15.66
2018-08-27T00:16:25.988Z,15.82
2018-08-27T00:26:25.977Z,16.04
2018-08-27T00:36:26.025Z,16.15
2018-08-27T00:46:26.030Z,16.18
2018-08-27T00:56:26.006Z,16.14
2018-08-27T01:06:26.016Z,16.16
2018-08-27T01:16:25.991Z,16.22
2018-08-27T01:26:25.987Z,16.31
2018-08-27T01:36:25.977Z,16.33
2018-08-27T01:46:26.015Z,16.59
2018-08-27T01:56:26.014Z,16.48
2018-08-27T02:06:26.036Z,16.62
2018-08-27T02:16:25.999Z,16.78
2018-08-27T02:26:26.001Z,16.73
2018-08-27T02:36:26.025Z,16.75
2018-08-27T02:46:26.001Z,16.62
2018-08-27T02:56:26.018Z,16.41
2018-08-27T03:06:26.009Z,16.09
2018-08-27T03:16:25.999Z,15.82
2018-08-27T03:26:25.999Z,15.51
2018-08-27T03:36:26.027Z,15.45
2018-08-27T03:46:26.048Z,15.42
2018-08-27T03:56:25.996Z,15.42
2018-08-27T04:06:26.026Z,15.41
2018-08-27T04:16:26.053Z,15.24
2018-08-27T04:26:28.937Z,15.26
2018-08-27T04:36:26.089Z,15.03
2018-08-27T04:46:26.118Z,14.69
2018-08-27T04:57:51.257Z,14.57
2018-08-27T05:07:51.275Z,14.53
2018-08-27T05:17:51.251Z,14.57
2018-08-27T05:27:51.225Z,14.53
2018-08-27T05:37:51.242Z,14.53
2018-08-27T05:47:51.344Z,14.62
2018-08-27T05:57:51.243Z,14.64
2018-08-27T06:07:51.252Z,14.75
2018-08-27T06:17:51.302Z,14.84
2018-08-27T06:27:51.244Z,15.01
2018-08-27T06:37:51.262Z,15.05
2018-08-27T06:47:51.241Z,15.11
2018-08-27T06:57:51.247Z,15.35
2018-08-27T07:07:51.269Z,15.51
2018-08-27T07:17:51.260Z,15.61
2018-08-27T07:27:51.266Z,15.81
2018-08-27T07:37:51.269Z,15.88
2018-08-27T07:47:51.253Z,16.3
2018-08-27T07:57:51.233Z,16.52
2018-08-27T08:07:51.286Z,17.04
2018-08-27T08:17:51.296Z,17.11
2018-08-27T08:27:51.278Z,17.33
2018-08-27T08:37:51.271Z,17.85
2018-08-27T08:47:51.288Z,18.34
2018-08-27T08:57:51.252Z,18.7
2018-08-27T09:07:51.261Z,18.52
2018-08-27T09:17:51.262Z,18.19
2018-08-27T09:27:51.233Z,18.64
2018-08-27T09:37:51.246Z,18.67
2018-08-27T09:47:51.251Z,18.86
2018-08-27T09:57:51.292Z,18.76
2018-08-27T10:07:51.347Z,19.02
2018-08-27T10:17:51.244Z,19.24
2018-08-27T10:27:51.291Z,19.35
2018-08-27T10:37:51.248Z,19.47
2018-08-27T10:47:51.268Z,20.21
2018-08-27T10:57:51.269Z,20.66
2018-08-27T11:07:51.267Z,20.76
2018-08-27T11:17:51.268Z,21.36
2018-08-27T11:27:51.297Z,22.17
2018-08-27T11:37:51.297Z,22.57
2018-08-27T11:47:51.253Z,21.53
2018-08-27T11:57:51.309Z,20.87
2018-08-27T12:07:51.287Z,21.6
2018-08-27T12:17:51.291Z,22.72
2018-08-27T12:27:51.380Z,23.26
2018-08-27T12:37:51.350Z,23.55
2018-08-27T12:47:51.338Z,22.86
2018-08-27T12:57:51.275Z,23.09
2018-08-27T13:07:51.381Z,22.72
2018-08-27T13:17:51.330Z,22.8
2018-08-27T13:27:51.297Z,22.43
2018-08-27T13:37:51.330Z,22.6
2018-08-27T13:47:51.294Z,23.05
2018-08-27T13:57:51.325Z,22.62
2018-08-27T14:07:51.285Z,22.53
2018-08-27T14:17:51.317Z,23.24
2018-08-27T14:27:51.300Z,22.65
2018-08-27T14:37:51.337Z,22.49
2018-08-27T14:47:51.389Z,22.13
2018-08-27T14:57:51.360Z,22.13
2018-08-27T15:07:51.315Z,22.27
2018-08-27T15:17:51.290Z,22.38
2018-08-27T15:27:51.308Z,21.87
2018-08-27T15:37:51.324Z,21.59
2018-08-27T15:47:51.332Z,21.71
2018-08-27T15:57:51.408Z,21.26
2018-08-27T16:07:51.367Z,21.01
2018-08-27T16:17:51.460Z,21.13
2018-08-27T16:27:53.451Z,20.77
2018-08-27T16:37:51.303Z,20.64
2018-08-27T16:47:51.334Z,20.39
2018-08-27T16:57:51.337Z,20.08
2018-08-27T17:07:51.369Z,19.72
2018-08-27T17:17:51.340Z,19.51
2018-08-27T17:27:51.357Z,19.36
2018-08-27T17:37:51.325Z,19.21
2018-08-27T17:47:51.343Z,19.01
2018-08-27T17:57:51.399Z,18.79
2018-08-27T18:07:52.901Z,18.76
2018-08-27T18:17:52.215Z,18.7
2018-08-27T18:27:53.041Z,18.52
2018-08-27T18:37:53.783Z,18.36
2018-08-27T18:47:51.503Z,18.22
2018-08-27T18:57:54.026Z,18.09
2018-08-27T19:07:53.864Z,18.02
2018-08-27T19:17:53.978Z,17.99
2018-08-27T19:27:53.757Z,18.02
2018-08-27T19:37:54.574Z,17.76
2018-08-27T19:47:51.924Z,17.84
2018-08-27T19:57:51.438Z,17.74
2018-08-27T20:07:51.398Z,17.69
2018-08-27T20:17:51.349Z,17.66
2018-08-27T20:27:51.370Z,17.64
2018-08-27T20:37:51.331Z,17.5
2018-08-27T20:47:51.450Z,17.55
2018-08-27T20:57:51.465Z,17.55
2018-08-27T21:07:51.469Z,17.48
2018-08-27T21:17:51.432Z,17.48
2018-08-27T21:27:51.332Z,17.55
2018-08-27T21:37:51.477Z,17.47
2018-08-27T21:47:51.473Z,17.48
2018-08-27T21:57:51.377Z,17.44
2018-08-27T22:14:18.578Z,17.41
2018-08-27T22:17:51.346Z,17.38
2018-08-27T22:27:51.442Z,17.23
2018-08-27T22:37:51.414Z,17.23
2018-08-27T22:47:52.375Z,17.1
2018-08-27T22:57:51.451Z,17.17
2018-08-27T23:07:51.374Z,17.07
2018-08-27T23:17:51.458Z,17.11
2018-08-27T23:27:51.457Z,16.92
2018-08-27T23:37:51.409Z,16.98
2018-08-27T23:47:51.440Z,17
2018-08-27T23:57:51.419Z,16.98
